Weather at Drammen Heliport, Hospital

Public forecast

Using degrees Celsius for public forecast. Weather courtesy of forecast.io.

Closest aviation weather report (METAR) to Drammen Heliport, Hospital

Closest report is Oslo, Fornebu Airport, 15.5 nm (28.7 km) NE. Retrieved 2021/04/12 20:50 UTC (20 minutes ago):

ENFB 122050Z AUTO 02023KT 9999NDV SCT031/// BKN070/// ///// Q//// W///S5

Closest aviation forecast (TAF) to Drammen Heliport, Hospital

Closest forecast is Moss Airport, Rygge, 28.5 nm (52.7 km) SE. Retrieved 2021/04/12 18:57 UTC (2 hours ago):

TAF ENRY 121700Z 1218/1318 34008KT 9999 -SHRA SCT008 BKN020 TEMPO 1218/1303 2000 SHSNRA BKN008 FEW020CB